createdAt,value
2023-01-12T00:11:39.916Z,6.39
2023-01-12T00:26:43.733Z,6.48
2023-01-12T00:42:05.682Z,6.67
2023-01-12T00:57:09.994Z,6.65
2023-01-12T01:12:13.460Z,6.78
2023-01-12T01:27:16.705Z,6.85
2023-01-12T01:42:28.815Z,6.90
2023-01-12T01:57:42.478Z,6.97
2023-01-12T02:13:04.802Z,6.91
2023-01-12T02:28:29.859Z,7.04
2023-01-12T02:43:36.153Z,7.18
2023-01-12T02:58:45.912Z,7.23
2023-01-12T03:13:57.632Z,7.29
2023-01-12T03:29:25.072Z,7.39
2023-01-12T03:44:48.625Z,7.42
2023-01-12T03:59:54.103Z,7.41
2023-01-12T04:14:57.362Z,7.46
2023-01-12T04:30:00.592Z,7.59
2023-01-12T04:45:04.100Z,7.80
2023-01-12T05:00:07.955Z,7.89
2023-01-12T05:15:11.585Z,7.94
2023-01-12T05:30:15.177Z,8.00
2023-01-12T05:45:18.340Z,8.09
2023-01-12T06:00:22.141Z,8.12
2023-01-12T06:15:25.437Z,8.12
2023-01-12T06:30:28.580Z,8.15
2023-01-12T06:45:31.918Z,8.13
2023-01-12T07:00:35.178Z,8.18
2023-01-12T07:15:38.751Z,8.14
2023-01-12T07:30:42.227Z,8.05
2023-01-12T07:45:46.136Z,8.04
2023-01-12T08:00:49.580Z,8.00
2023-01-12T08:15:54.790Z,8.11
2023-01-12T08:30:58.241Z,8.04
2023-01-12T08:46:08.062Z,8.36
2023-01-12T09:01:14.176Z,8.77
2023-01-12T09:16:19.256Z,8.73
2023-01-12T09:31:23.875Z,9.21
2023-01-12T09:46:51.249Z,9.93
2023-01-12T10:01:54.602Z,9.38
2023-01-12T10:17:10.059Z,9.43
2023-01-12T10:32:15.895Z,9.43
2023-01-12T10:47:20.359Z,9.24
2023-01-12T11:02:29.214Z,9.23
2023-01-12T11:17:58.215Z,9.32
2023-01-12T11:33:23.051Z,9.41
2023-01-12T11:48:39.007Z,9.58
2023-01-12T12:03:58.064Z,9.61
2023-01-12T12:19:38.707Z,9.66
2023-01-12T12:34:49.538Z,10.19
2023-01-12T12:49:56.562Z,9.85
2023-01-12T13:05:04.871Z,9.73
2023-01-12T13:20:20.174Z,10.06
2023-01-12T13:35:33.981Z,10.32
2023-01-12T13:50:38.526Z,9.88
2023-01-12T14:05:48.046Z,9.97
2023-01-12T14:20:59.380Z,9.92
2023-01-12T14:36:07.321Z,9.75
2023-01-12T14:51:10.465Z,9.54
2023-01-12T15:06:17.193Z,9.26
2023-01-12T15:21:39.449Z,9.08
2023-01-12T15:36:42.574Z,8.92
2023-01-12T15:51:52.481Z,8.86
2023-01-12T16:06:56.338Z,8.91
2023-01-12T16:21:59.916Z,8.77
2023-01-12T16:37:04.571Z,8.69
2023-01-12T16:52:09.267Z,8.67
2023-01-12T17:07:12.974Z,8.87
2023-01-12T17:22:16.790Z,8.91
2023-01-12T17:37:21.250Z,8.78
2023-01-12T17:52:24.932Z,8.72
2023-01-12T18:07:29.724Z,8.61
2023-01-12T18:22:33.643Z,8.79
2023-01-12T18:37:36.988Z,8.98
2023-01-12T18:52:58.661Z,9.02
2023-01-12T19:08:05.407Z,9.14
2023-01-12T19:23:30.095Z,9.35
2023-01-12T19:38:33.803Z,9.41
2023-01-12T19:53:38.304Z,9.58
2023-01-12T20:08:42.172Z,9.60
2023-01-12T20:23:45.717Z,9.60
2023-01-12T20:38:50.819Z,9.57
2023-01-12T20:53:54.205Z,9.49
2023-01-12T21:09:02.451Z,9.42
2023-01-12T21:24:06.176Z,9.50
2023-01-12T21:39:09.453Z,9.54
2023-01-12T21:54:13.443Z,9.52
2023-01-12T22:09:16.785Z,9.62
2023-01-12T22:24:20.385Z,9.54
2023-01-12T22:39:23.552Z,9.40
2023-01-12T22:54:26.721Z,9.45
2023-01-12T23:09:29.866Z,9.48
2023-01-12T23:24:33.028Z,9.53
2023-01-12T23:39:36.599Z,9.55
2023-01-12T23:54:40.250Z,9.48
